sensor_id;sensor_type;location;lat;lon;timestamp;P1;durP1;ratioP1;P2;durP2;ratioP2
15858;SDS011;8029;52.202;7.308;2023-08-12T00:00:18;5.75;;;4.68;;
15858;SDS011;8029;52.202;7.308;2023-08-12T00:02:44;4.70;;;4.05;;
15858;SDS011;8029;52.202;7.308;2023-08-12T00:05:11;4.93;;;3.85;;
15858;SDS011;8029;52.202;7.308;2023-08-12T00:07:37;4.88;;;3.90;;
15858;SDS011;8029;52.202;7.308;2023-08-12T00:10:04;4.22;;;3.63;;
15858;SDS011;8029;52.202;7.308;2023-08-12T00:12:34;4.90;;;4.43;;
15858;SDS011;8029;52.202;7.308;2023-08-12T00:15:00;5.35;;;4.18;;
15858;SDS011;8029;52.202;7.308;2023-08-12T00:17:26;4.88;;;4.13;;
15858;SDS011;8029;52.202;7.308;2023-08-12T00:19:52;5.43;;;4.43;;
15858;SDS011;8029;52.202;7.308;2023-08-12T00:22:18;5.47;;;4.85;;
15858;SDS011;8029;52.202;7.308;2023-08-12T00:24:44;4.10;;;3.70;;
15858;SDS011;8029;52.202;7.308;2023-08-12T00:27:10;5.38;;;4.15;;
15858;SDS011;8029;52.202;7.308;2023-08-12T00:29:36;22.77;;;4.97;;
15858;SDS011;8029;52.202;7.308;2023-08-12T00:32:03;4.50;;;4.10;;
15858;SDS011;8029;52.202;7.308;2023-08-12T00:34:29;4.60;;;4.00;;
15858;SDS011;8029;52.202;7.308;2023-08-12T00:36:55;5.63;;;4.28;;
15858;SDS011;8029;52.202;7.308;2023-08-12T00:39:21;5.47;;;4.90;;
15858;SDS011;8029;52.202;7.308;2023-08-12T00:41:47;7.03;;;4.53;;
15858;SDS011;8029;52.202;7.308;2023-08-12T00:44:13;5.88;;;5.28;;
15858;SDS011;8029;52.202;7.308;2023-08-12T00:46:39;8.07;;;4.78;;
15858;SDS011;8029;52.202;7.308;2023-08-12T00:49:06;4.63;;;3.85;;
15858;SDS011;8029;52.202;7.308;2023-08-12T00:51:32;9.35;;;5.22;;
15858;SDS011;8029;52.202;7.308;2023-08-12T00:53:58;4.20;;;3.83;;
15858;SDS011;8029;52.202;7.308;2023-08-12T00:56:25;6.50;;;5.30;;
15858;SDS011;8029;52.202;7.308;2023-08-12T00:58:52;6.55;;;4.60;;
15858;SDS011;8029;52.202;7.308;2023-08-12T01:01:18;7.55;;;5.05;;
15858;SDS011;8029;52.202;7.308;2023-08-12T01:03:44;5.25;;;4.38;;
15858;SDS011;8029;52.202;7.308;2023-08-12T01:06:10;5.07;;;4.57;;
15858;SDS011;8029;52.202;7.308;2023-08-12T01:08:36;4.18;;;3.78;;
15858;SDS011;8029;52.202;7.308;2023-08-12T01:11:03;6.95;;;4.25;;
15858;SDS011;8029;52.202;7.308;2023-08-12T01:13:33;4.47;;;3.70;;
15858;SDS011;8029;52.202;7.308;2023-08-12T01:16:00;4.82;;;3.05;;
15858;SDS011;8029;52.202;7.308;2023-08-12T01:18:29;6.25;;;3.63;;
15858;SDS011;8029;52.202;7.308;2023-08-12T01:20:55;4.15;;;3.75;;
15858;SDS011;8029;52.202;7.308;2023-08-12T01:23:21;6.47;;;4.43;;
15858;SDS011;8029;52.202;7.308;2023-08-12T01:25:48;5.25;;;4.75;;
15858;SDS011;8029;52.202;7.308;2023-08-12T01:28:14;3.38;;;3.08;;
15858;SDS011;8029;52.202;7.308;2023-08-12T01:30:49;5.43;;;3.67;;
15858;SDS011;8029;52.202;7.308;2023-08-12T01:33:37;3.95;;;3.58;;
15858;SDS011;8029;52.202;7.308;2023-08-12T01:36:09;4.30;;;2.95;;
15858;SDS011;8029;52.202;7.308;2023-08-12T01:38:38;5.63;;;4.07;;
15858;SDS011;8029;52.202;7.308;2023-08-12T01:41:04;3.95;;;3.33;;
15858;SDS011;8029;52.202;7.308;2023-08-12T01:43:31;14.90;;;3.60;;
15858;SDS011;8029;52.202;7.308;2023-08-12T01:45:58;5.18;;;3.45;;
15858;SDS011;8029;52.202;7.308;2023-08-12T01:48:24;4.50;;;3.47;;
15858;SDS011;8029;52.202;7.308;2023-08-12T01:50:50;4.05;;;3.58;;
15858;SDS011;8029;52.202;7.308;2023-08-12T01:53:16;5.63;;;4.00;;
15858;SDS011;8029;52.202;7.308;2023-08-12T01:55:43;4.38;;;3.80;;
15858;SDS011;8029;52.202;7.308;2023-08-12T01:58:09;3.97;;;3.40;;
15858;SDS011;8029;52.202;7.308;2023-08-12T02:00:35;4.20;;;3.75;;
15858;SDS011;8029;52.202;7.308;2023-08-12T02:03:01;6.93;;;4.75;;
15858;SDS011;8029;52.202;7.308;2023-08-12T02:05:27;4.13;;;3.72;;
15858;SDS011;8029;52.202;7.308;2023-08-12T02:07:53;3.75;;;3.42;;
15858;SDS011;8029;52.202;7.308;2023-08-12T02:10:19;3.42;;;3.13;;
15858;SDS011;8029;52.202;7.308;2023-08-12T02:12:45;4.13;;;3.83;;
15858;SDS011;8029;52.202;7.308;2023-08-12T02:15:11;11.13;;;3.47;;
15858;SDS011;8029;52.202;7.308;2023-08-12T02:17:38;4.25;;;3.67;;
15858;SDS011;8029;52.202;7.308;2023-08-12T02:20:04;3.30;;;3.00;;
15858;SDS011;8029;52.202;7.308;2023-08-12T02:22:30;17.70;;;3.97;;
15858;SDS011;8029;52.202;7.308;2023-08-12T02:24:56;4.18;;;3.65;;
15858;SDS011;8029;52.202;7.308;2023-08-12T02:27:22;3.53;;;3.15;;
15858;SDS011;8029;52.202;7.308;2023-08-12T02:29:48;4.20;;;3.75;;
15858;SDS011;8029;52.202;7.308;2023-08-12T02:32:14;3.35;;;3.05;;
15858;SDS011;8029;52.202;7.308;2023-08-12T02:34:40;6.60;;;3.40;;
15858;SDS011;8029;52.202;7.308;2023-08-12T02:37:06;3.75;;;3.38;;
15858;SDS011;8029;52.202;7.308;2023-08-12T02:39:32;4.00;;;3.60;;
15858;SDS011;8029;52.202;7.308;2023-08-12T02:41:58;3.50;;;3.17;;
15858;SDS011;8029;52.202;7.308;2023-08-12T02:44:24;6.93;;;3.53;;
15858;SDS011;8029;52.202;7.308;2023-08-12T02:46:50;4.85;;;4.03;;
15858;SDS011;8029;52.202;7.308;2023-08-12T02:49:16;3.67;;;3.38;;
15858;SDS011;8029;52.202;7.308;2023-08-12T02:51:42;4.18;;;3.78;;
15858;SDS011;8029;52.202;7.308;2023-08-12T02:54:08;4.05;;;3.20;;
15858;SDS011;8029;52.202;7.308;2023-08-12T02:56:34;6.03;;;3.85;;
15858;SDS011;8029;52.202;7.308;2023-08-12T02:59:00;4.10;;;2.88;;
15858;SDS011;8029;52.202;7.308;2023-08-12T03:01:26;3.83;;;3.50;;
15858;SDS011;8029;52.202;7.308;2023-08-12T03:03:52;3.20;;;2.92;;
15858;SDS011;8029;52.202;7.308;2023-08-12T03:06:18;4.38;;;3.15;;
15858;SDS011;8029;52.202;7.308;2023-08-12T03:08:44;2.85;;;2.65;;
15858;SDS011;8029;52.202;7.308;2023-08-12T03:11:10;4.40;;;3.53;;
15858;SDS011;8029;52.202;7.308;2023-08-12T03:13:36;4.47;;;3.65;;
15858;SDS011;8029;52.202;7.308;2023-08-12T03:16:02;6.25;;;3.35;;
15858;SDS011;8029;52.202;7.308;2023-08-12T03:18:28;4.78;;;4.22;;
15858;SDS011;8029;52.202;7.308;2023-08-12T03:20:54;5.57;;;3.60;;
15858;SDS011;8029;52.202;7.308;2023-08-12T03:23:20;3.47;;;2.92;;
15858;SDS011;8029;52.202;7.308;2023-08-12T03:25:47;2.45;;;2.25;;
15858;SDS011;8029;52.202;7.308;2023-08-12T03:28:13;3.53;;;3.22;;
15858;SDS011;8029;52.202;7.308;2023-08-12T03:30:39;4.38;;;3.30;;
15858;SDS011;8029;52.202;7.308;2023-08-12T03:33:05;3.60;;;3.13;;
15858;SDS011;8029;52.202;7.308;2023-08-12T03:35:31;2.83;;;2.63;;
15858;SDS011;8029;52.202;7.308;2023-08-12T03:37:57;2.78;;;2.42;;
15858;SDS011;8029;52.202;7.308;2023-08-12T03:40:23;2.78;;;2.58;;
15858;SDS011;8029;52.202;7.308;2023-08-12T03:42:49;3.50;;;3.08;;
15858;SDS011;8029;52.202;7.308;2023-08-12T03:45:15;3.90;;;2.90;;
15858;SDS011;8029;52.202;7.308;2023-08-12T03:47:41;4.90;;;3.72;;
15858;SDS011;8029;52.202;7.308;2023-08-12T03:50:07;3.55;;;3.25;;
15858;SDS011;8029;52.202;7.308;2023-08-12T03:52:33;2.92;;;2.72;;
15858;SDS011;8029;52.202;7.308;2023-08-12T03:54:59;4.00;;;3.63;;
15858;SDS011;8029;52.202;7.308;2023-08-12T03:57:25;3.38;;;3.08;;
15858;SDS011;8029;52.202;7.308;2023-08-12T03:59:51;3.67;;;3.03;;
15858;SDS011;8029;52.202;7.308;2023-08-12T04:02:17;3.17;;;2.88;;
15858;SDS011;8029;52.202;7.308;2023-08-12T04:04:43;3.97;;;3.25;;
15858;SDS011;8029;52.202;7.308;2023-08-12T04:07:09;3.55;;;3.10;;
15858;SDS011;8029;52.202;7.308;2023-08-12T04:09:35;3.00;;;2.80;;
15858;SDS011;8029;52.202;7.308;2023-08-12T04:12:01;3.72;;;3.40;;
15858;SDS011;8029;52.202;7.308;2023-08-12T04:14:27;3.75;;;3.40;;
15858;SDS011;8029;52.202;7.308;2023-08-12T04:16:53;18.48;;;4.18;;
15858;SDS011;8029;52.202;7.308;2023-08-12T04:19:19;3.67;;;3.38;;
15858;SDS011;8029;52.202;7.308;2023-08-12T04:21:45;4.07;;;3.17;;
15858;SDS011;8029;52.202;7.308;2023-08-12T04:24:11;29.20;;;4.35;;
15858;SDS011;8029;52.202;7.308;2023-08-12T04:26:38;3.53;;;3.17;;
15858;SDS011;8029;52.202;7.308;2023-08-12T04:29:04;3.47;;;3.13;;
15858;SDS011;8029;52.202;7.308;2023-08-12T04:31:30;3.63;;;3.30;;
15858;SDS011;8029;52.202;7.308;2023-08-12T04:33:56;3.65;;;3.35;;
15858;SDS011;8029;52.202;7.308;2023-08-12T04:36:23;5.43;;;3.35;;
15858;SDS011;8029;52.202;7.308;2023-08-12T04:38:48;3.15;;;2.90;;
15858;SDS011;8029;52.202;7.308;2023-08-12T04:41:15;4.28;;;3.47;;
15858;SDS011;8029;52.202;7.308;2023-08-12T04:43:41;2.88;;;2.67;;
15858;SDS011;8029;52.202;7.308;2023-08-12T04:46:07;4.30;;;3.35;;
15858;SDS011;8029;52.202;7.308;2023-08-12T04:48:33;3.85;;;3.15;;
15858;SDS011;8029;52.202;7.308;2023-08-12T04:50:59;3.53;;;3.22;;
15858;SDS011;8029;52.202;7.308;2023-08-12T04:53:26;2.75;;;2.55;;
15858;SDS011;8029;52.202;7.308;2023-08-12T04:55:54;5.50;;;3.33;;
15858;SDS011;8029;52.202;7.308;2023-08-12T04:58:21;3.08;;;2.85;;
15858;SDS011;8029;52.202;7.308;2023-08-12T05:00:47;2.53;;;2.33;;
15858;SDS011;8029;52.202;7.308;2023-08-12T05:03:13;2.53;;;2.33;;
15858;SDS011;8029;52.202;7.308;2023-08-12T05:05:39;13.18;;;3.08;;
15858;SDS011;8029;52.202;7.308;2023-08-12T05:08:05;2.83;;;2.63;;
15858;SDS011;8029;52.202;7.308;2023-08-12T05:10:31;4.60;;;2.92;;
15858;SDS011;8029;52.202;7.308;2023-08-12T05:12:57;4.05;;;3.28;;
15858;SDS011;8029;52.202;7.308;2023-08-12T05:15:23;2.55;;;2.30;;
15858;SDS011;8029;52.202;7.308;2023-08-12T05:17:49;2.97;;;2.78;;
15858;SDS011;8029;52.202;7.308;2023-08-12T05:20:15;3.20;;;2.90;;
15858;SDS011;8029;52.202;7.308;2023-08-12T05:22:41;4.85;;;3.33;;
15858;SDS011;8029;52.202;7.308;2023-08-12T05:25:07;3.38;;;3.08;;
15858;SDS011;8029;52.202;7.308;2023-08-12T05:27:33;3.97;;;3.50;;
15858;SDS011;8029;52.202;7.308;2023-08-12T05:29:59;4.53;;;2.85;;
15858;SDS011;8029;52.202;7.308;2023-08-12T05:32:25;8.40;;;3.65;;
15858;SDS011;8029;52.202;7.308;2023-08-12T05:34:52;3.35;;;2.75;;
15858;SDS011;8029;52.202;7.308;2023-08-12T05:37:18;3.60;;;3.30;;
15858;SDS011;8029;52.202;7.308;2023-08-12T05:39:44;2.40;;;2.20;;
15858;SDS011;8029;52.202;7.308;2023-08-12T05:42:10;2.53;;;2.35;;
15858;SDS011;8029;52.202;7.308;2023-08-12T05:44:36;3.70;;;2.90;;
15858;SDS011;8029;52.202;7.308;2023-08-12T05:47:02;4.65;;;4.15;;
15858;SDS011;8029;52.202;7.308;2023-08-12T05:49:28;8.15;;;5.32;;
15858;SDS011;8029;52.202;7.308;2023-08-12T05:51:54;5.13;;;3.40;;
15858;SDS011;8029;52.202;7.308;2023-08-12T05:54:20;5.43;;;3.15;;
15858;SDS011;8029;52.202;7.308;2023-08-12T05:56:46;4.07;;;3.03;;
15858;SDS011;8029;52.202;7.308;2023-08-12T05:59:12;3.40;;;3.10;;
15858;SDS011;8029;52.202;7.308;2023-08-12T06:01:38;3.22;;;2.95;;
15858;SDS011;8029;52.202;7.308;2023-08-12T06:04:04;3.17;;;2.92;;
15858;SDS011;8029;52.202;7.308;2023-08-12T06:06:30;3.33;;;3.08;;
15858;SDS011;8029;52.202;7.308;2023-08-12T06:08:56;3.80;;;3.17;;
15858;SDS011;8029;52.202;7.308;2023-08-12T06:11:22;4.43;;;3.08;;
15858;SDS011;8029;52.202;7.308;2023-08-12T06:13:48;4.07;;;3.08;;
15858;SDS011;8029;52.202;7.308;2023-08-12T06:16:14;2.92;;;2.72;;
15858;SDS011;8029;52.202;7.308;2023-08-12T06:18:40;13.90;;;3.13;;
15858;SDS011;8029;52.202;7.308;2023-08-12T06:21:06;5.10;;;3.75;;
15858;SDS011;8029;52.202;7.308;2023-08-12T06:23:32;5.35;;;3.65;;
15858;SDS011;8029;52.202;7.308;2023-08-12T06:25:58;6.25;;;3.55;;
15858;SDS011;8029;52.202;7.308;2023-08-12T06:28:24;7.88;;;3.25;;
15858;SDS011;8029;52.202;7.308;2023-08-12T06:30:50;6.85;;;3.78;;
15858;SDS011;8029;52.202;7.308;2023-08-12T06:33:16;3.33;;;3.00;;
15858;SDS011;8029;52.202;7.308;2023-08-12T06:35:42;6.75;;;4.10;;
15858;SDS011;8029;52.202;7.308;2023-08-12T06:38:08;3.90;;;3.58;;
15858;SDS011;8029;52.202;7.308;2023-08-12T06:40:35;4.32;;;3.65;;
15858;SDS011;8029;52.202;7.308;2023-08-12T06:43:01;3.58;;;3.28;;
15858;SDS011;8029;52.202;7.308;2023-08-12T06:45:27;3.45;;;3.00;;
15858;SDS011;8029;52.202;7.308;2023-08-12T06:47:53;5.70;;;3.85;;
15858;SDS011;8029;52.202;7.308;2023-08-12T06:50:19;3.67;;;3.33;;
15858;SDS011;8029;52.202;7.308;2023-08-12T06:52:45;7.18;;;4.40;;
15858;SDS011;8029;52.202;7.308;2023-08-12T06:55:11;6.38;;;3.97;;
15858;SDS011;8029;52.202;7.308;2023-08-12T06:57:37;5.53;;;4.28;;
15858;SDS011;8029;52.202;7.308;2023-08-12T07:00:03;6.15;;;5.55;;
15858;SDS011;8029;52.202;7.308;2023-08-12T07:02:30;10.50;;;6.70;;
15858;SDS011;8029;52.202;7.308;2023-08-12T07:04:56;11.20;;;8.05;;
15858;SDS011;8029;52.202;7.308;2023-08-12T07:07:22;14.75;;;7.30;;
15858;SDS011;8029;52.202;7.308;2023-08-12T07:09:48;14.43;;;7.72;;
15858;SDS011;8029;52.202;7.308;2023-08-12T07:12:14;9.55;;;6.82;;
15858;SDS011;8029;52.202;7.308;2023-08-12T07:14:40;9.07;;;7.45;;
15858;SDS011;8029;52.202;7.308;2023-08-12T07:17:06;9.00;;;8.13;;
15858;SDS011;8029;52.202;7.308;2023-08-12T07:19:32;12.35;;;8.75;;
15858;SDS011;8029;52.202;7.308;2023-08-12T07:21:58;9.10;;;7.60;;
15858;SDS011;8029;52.202;7.308;2023-08-12T07:24:24;16.13;;;8.80;;
15858;SDS011;8029;52.202;7.308;2023-08-12T07:26:50;12.07;;;7.88;;
15858;SDS011;8029;52.202;7.308;2023-08-12T07:29:16;8.35;;;7.28;;
15858;SDS011;8029;52.202;7.308;2023-08-12T07:31:42;8.25;;;7.45;;
15858;SDS011;8029;52.202;7.308;2023-08-12T07:34:08;16.05;;;7.60;;
15858;SDS011;8029;52.202;7.308;2023-08-12T07:36:38;11.00;;;9.40;;
15858;SDS011;8029;52.202;7.308;2023-08-12T07:39:04;9.35;;;7.97;;
15858;SDS011;8029;52.202;7.308;2023-08-12T07:41:30;12.32;;;9.23;;
15858;SDS011;8029;52.202;7.308;2023-08-12T07:43:56;9.85;;;8.77;;
15858;SDS011;8029;52.202;7.308;2023-08-12T07:46:22;9.48;;;8.13;;
15858;SDS011;8029;52.202;7.308;2023-08-12T07:48:48;10.75;;;7.43;;
15858;SDS011;8029;52.202;7.308;2023-08-12T07:51:14;24.23;;;8.50;;
15858;SDS011;8029;52.202;7.308;2023-08-12T07:53:40;9.68;;;8.63;;
15858;SDS011;8029;52.202;7.308;2023-08-12T07:56:06;12.10;;;8.63;;
15858;SDS011;8029;52.202;7.308;2023-08-12T07:58:32;10.38;;;9.35;;
15858;SDS011;8029;52.202;7.308;2023-08-12T08:00:58;19.42;;;9.02;;
15858;SDS011;8029;52.202;7.308;2023-08-12T08:03:24;11.02;;;9.57;;
15858;SDS011;8029;52.202;7.308;2023-08-12T08:05:50;9.63;;;8.73;;
15858;SDS011;8029;52.202;7.308;2023-08-12T08:08:17;8.07;;;6.78;;
15858;SDS011;8029;52.202;7.308;2023-08-12T08:10:43;9.18;;;6.78;;
15858;SDS011;8029;52.202;7.308;2023-08-12T08:13:09;9.32;;;7.15;;
15858;SDS011;8029;52.202;7.308;2023-08-12T08:15:35;6.75;;;6.07;;
15858;SDS011;8029;52.202;7.308;2023-08-12T08:18:02;8.25;;;7.43;;
15858;SDS011;8029;52.202;7.308;2023-08-12T08:20:29;9.35;;;7.50;;
15858;SDS011;8029;52.202;7.308;2023-08-12T08:22:55;10.25;;;7.47;;
15858;SDS011;8029;52.202;7.308;2023-08-12T08:25:21;7.75;;;6.95;;
15858;SDS011;8029;52.202;7.308;2023-08-12T08:27:47;7.50;;;6.65;;
15858;SDS011;8029;52.202;7.308;2023-08-12T08:30:16;10.27;;;9.00;;
15858;SDS011;8029;52.202;7.308;2023-08-12T08:32:42;10.93;;;7.00;;
15858;SDS011;8029;52.202;7.308;2023-08-12T08:35:08;10.68;;;8.23;;
15858;SDS011;8029;52.202;7.308;2023-08-12T08:37:34;8.25;;;7.45;;
15858;SDS011;8029;52.202;7.308;2023-08-12T08:40:00;8.38;;;7.03;;
15858;SDS011;8029;52.202;7.308;2023-08-12T08:42:26;6.15;;;5.32;;
15858;SDS011;8029;52.202;7.308;2023-08-12T08:44:53;6.53;;;5.90;;
15858;SDS011;8029;52.202;7.308;2023-08-12T08:47:25;6.10;;;5.00;;
15858;SDS011;8029;52.202;7.308;2023-08-12T08:49:54;16.85;;;7.20;;
15858;SDS011;8029;52.202;7.308;2023-08-12T08:52:24;7.40;;;6.38;;
15858;SDS011;8029;52.202;7.308;2023-08-12T08:54:50;8.18;;;6.32;;
15858;SDS011;8029;52.202;7.308;2023-08-12T08:57:17;6.78;;;5.68;;
15858;SDS011;8029;52.202;7.308;2023-08-12T08:59:44;9.27;;;6.18;;
15858;SDS011;8029;52.202;7.308;2023-08-12T09:02:15;7.20;;;5.90;;
15858;SDS011;8029;52.202;7.308;2023-08-12T09:04:44;6.00;;;5.38;;
15858;SDS011;8029;52.202;7.308;2023-08-12T09:07:11;7.55;;;5.07;;
15858;SDS011;8029;52.202;7.308;2023-08-12T09:09:39;5.70;;;4.97;;
15858;SDS011;8029;52.202;7.308;2023-08-12T09:12:07;3.97;;;3.67;;
15858;SDS011;8029;52.202;7.308;2023-08-12T09:14:34;6.85;;;4.80;;
15858;SDS011;8029;52.202;7.308;2023-08-12T09:17:00;6.38;;;4.65;;
15858;SDS011;8029;52.202;7.308;2023-08-12T09:19:27;4.57;;;4.15;;
15858;SDS011;8029;52.202;7.308;2023-08-12T09:21:53;3.80;;;3.50;;
15858;SDS011;8029;52.202;7.308;2023-08-12T09:24:26;3.22;;;2.97;;
15858;SDS011;8029;52.202;7.308;2023-08-12T09:26:53;2.58;;;2.40;;
15858;SDS011;8029;52.202;7.308;2023-08-12T09:29:22;4.25;;;2.33;;
15858;SDS011;8029;52.202;7.308;2023-08-12T09:31:49;2.70;;;2.50;;
15858;SDS011;8029;52.202;7.308;2023-08-12T09:34:15;3.60;;;3.00;;
15858;SDS011;8029;52.202;7.308;2023-08-12T09:36:43;2.88;;;2.67;;
15858;SDS011;8029;52.202;7.308;2023-08-12T09:39:09;20.25;;;2.92;;
15858;SDS011;8029;52.202;7.308;2023-08-12T09:41:36;5.65;;;3.28;;
15858;SDS011;8029;52.202;7.308;2023-08-12T09:44:03;2.65;;;2.45;;
15858;SDS011;8029;52.202;7.308;2023-08-12T09:46:29;2.58;;;1.83;;
15858;SDS011;8029;52.202;7.308;2023-08-12T09:48:58;1.58;;;1.50;;
15858;SDS011;8029;52.202;7.308;2023-08-12T09:51:24;1.15;;;1.13;;
15858;SDS011;8029;52.202;7.308;2023-08-12T09:53:51;1.00;;;1.00;;
15858;SDS011;8029;52.202;7.308;2023-08-12T09:56:17;0.80;;;0.80;;
15858;SDS011;8029;52.202;7.308;2023-08-12T09:58:44;1.08;;;1.08;;
15858;SDS011;8029;52.202;7.308;2023-08-12T10:01:11;1.08;;;1.08;;
15858;SDS011;8029;52.202;7.308;2023-08-12T10:03:38;2.30;;;1.30;;
15858;SDS011;8029;52.202;7.308;2023-08-12T10:06:05;1.02;;;1.00;;
15858;SDS011;8029;52.202;7.308;2023-08-12T10:08:31;1.77;;;1.58;;
15858;SDS011;8029;52.202;7.308;2023-08-12T10:10:58;1.33;;;1.30;;
15858;SDS011;8029;52.202;7.308;2023-08-12T10:13:24;1.50;;;1.40;;
15858;SDS011;8029;52.202;7.308;2023-08-12T10:15:50;1.15;;;1.10;;
15858;SDS011;8029;52.202;7.308;2023-08-12T10:18:16;1.73;;;1.60;;
15858;SDS011;8029;52.202;7.308;2023-08-12T10:20:44;1.70;;;1.60;;
15858;SDS011;8029;52.202;7.308;2023-08-12T10:23:14;1.50;;;1.40;;
15858;SDS011;8029;52.202;7.308;2023-08-12T10:25:40;3.13;;;1.63;;
15858;SDS011;8029;52.202;7.308;2023-08-12T10:28:07;1.10;;;1.10;;
15858;SDS011;8029;52.202;7.308;2023-08-12T10:30:33;15.40;;;1.70;;
15858;SDS011;8029;52.202;7.308;2023-08-12T10:33:00;1.38;;;1.30;;
15858;SDS011;8029;52.202;7.308;2023-08-12T10:35:45;1.02;;;1.02;;
15858;SDS011;8029;52.202;7.308;2023-08-12T10:38:13;1.88;;;1.67;;
15858;SDS011;8029;52.202;7.308;2023-08-12T10:40:39;1.85;;;1.73;;
15858;SDS011;8029;52.202;7.308;2023-08-12T10:43:05;1.50;;;1.40;;
15858;SDS011;8029;52.202;7.308;2023-08-12T10:48:27;1.60;;;1.50;;
15858;SDS011;8029;52.202;7.308;2023-08-12T10:50:54;1.65;;;1.63;;
15858;SDS011;8029;52.202;7.308;2023-08-12T10:55:50;7.53;;;1.35;;
15858;SDS011;8029;52.202;7.308;2023-08-12T10:58:26;1.83;;;1.20;;
15858;SDS011;8029;52.202;7.308;2023-08-12T11:00:56;1.35;;;1.25;;
15858;SDS011;8029;52.202;7.308;2023-08-12T11:03:23;3.83;;;2.08;;
15858;SDS011;8029;52.202;7.308;2023-08-12T11:05:49;1.70;;;1.60;;
15858;SDS011;8029;52.202;7.308;2023-08-12T11:08:20;1.15;;;1.13;;
15858;SDS011;8029;52.202;7.308;2023-08-12T11:10:49;1.27;;;1.25;;
15858;SDS011;8029;52.202;7.308;2023-08-12T11:13:15;1.30;;;1.30;;
15858;SDS011;8029;52.202;7.308;2023-08-12T11:15:43;1.65;;;1.40;;
15858;SDS011;8029;52.202;7.308;2023-08-12T11:18:16;2.38;;;2.15;;
15858;SDS011;8029;52.202;7.308;2023-08-12T11:20:43;3.60;;;1.33;;
15858;SDS011;8029;52.202;7.308;2023-08-12T11:23:09;1.52;;;1.42;;
15858;SDS011;8029;52.202;7.308;2023-08-12T11:25:37;1.10;;;1.10;;
15858;SDS011;8029;52.202;7.308;2023-08-12T11:28:03;1.50;;;1.40;;
15858;SDS011;8029;52.202;7.308;2023-08-12T11:30:30;1.02;;;1.02;;
15858;SDS011;8029;52.202;7.308;2023-08-12T11:32:56;1.25;;;1.20;;
15858;SDS011;8029;52.202;7.308;2023-08-12T11:35:23;1.33;;;1.33;;
15858;SDS011;8029;52.202;7.308;2023-08-12T11:37:53;0.88;;;0.88;;
15858;SDS011;8029;52.202;7.308;2023-08-12T11:40:20;1.10;;;1.10;;
15858;SDS011;8029;52.202;7.308;2023-08-12T11:42:47;1.33;;;1.20;;
15858;SDS011;8029;52.202;7.308;2023-08-12T11:45:15;1.85;;;1.75;;
15858;SDS011;8029;52.202;7.308;2023-08-12T11:47:41;1.23;;;1.13;;
15858;SDS011;8029;52.202;7.308;2023-08-12T11:50:09;1.58;;;1.48;;
15858;SDS011;8029;52.202;7.308;2023-08-12T11:52:35;1.45;;;1.45;;
15858;SDS011;8029;52.202;7.308;2023-08-12T11:55:02;1.60;;;1.50;;
15858;SDS011;8029;52.202;7.308;2023-08-12T11:57:29;1.30;;;1.13;;
15858;SDS011;8029;52.202;7.308;2023-08-12T11:59:58;2.28;;;2.08;;
15858;SDS011;8029;52.202;7.308;2023-08-12T12:02:25;1.00;;;1.00;;
15858;SDS011;8029;52.202;7.308;2023-08-12T12:04:53;1.92;;;1.83;;
15858;SDS011;8029;52.202;7.308;2023-08-12T12:07:21;1.52;;;1.42;;
15858;SDS011;8029;52.202;7.308;2023-08-12T12:09:50;1.15;;;0.98;;
15858;SDS011;8029;52.202;7.308;2023-08-12T12:12:16;1.35;;;1.27;;
15858;SDS011;8029;52.202;7.308;2023-08-12T12:14:42;1.05;;;1.05;;
15858;SDS011;8029;52.202;7.308;2023-08-12T12:17:08;1.33;;;1.23;;
15858;SDS011;8029;52.202;7.308;2023-08-12T12:19:39;4.30;;;1.33;;
15858;SDS011;8029;52.202;7.308;2023-08-12T12:22:06;2.05;;;1.30;;
15858;SDS011;8029;52.202;7.308;2023-08-12T12:24:32;1.13;;;1.08;;
15858;SDS011;8029;52.202;7.308;2023-08-12T12:27:09;0.73;;;0.73;;
15858;SDS011;8029;52.202;7.308;2023-08-12T12:29:36;1.80;;;0.93;;
15858;SDS011;8029;52.202;7.308;2023-08-12T12:32:02;0.77;;;0.77;;
15858;SDS011;8029;52.202;7.308;2023-08-12T12:34:28;2.30;;;0.85;;
15858;SDS011;8029;52.202;7.308;2023-08-12T12:36:54;1.90;;;1.38;;
15858;SDS011;8029;52.202;7.308;2023-08-12T12:39:20;0.70;;;0.70;;
15858;SDS011;8029;52.202;7.308;2023-08-12T12:41:48;3.25;;;1.27;;
15858;SDS011;8029;52.202;7.308;2023-08-12T12:44:14;0.73;;;0.73;;
15858;SDS011;8029;52.202;7.308;2023-08-12T12:46:40;0.75;;;0.75;;
15858;SDS011;8029;52.202;7.308;2023-08-12T12:49:06;0.75;;;0.75;;
15858;SDS011;8029;52.202;7.308;2023-08-12T12:51:32;1.77;;;0.70;;
15858;SDS011;8029;52.202;7.308;2023-08-12T12:53:58;0.10;;;0.10;;
15858;SDS011;8029;52.202;7.308;2023-08-12T12:56:24;0.43;;;0.40;;
15858;SDS011;8029;52.202;7.308;2023-08-12T12:58:50;0.63;;;0.63;;
15858;SDS011;8029;52.202;7.308;2023-08-12T13:01:16;0.90;;;0.63;;
15858;SDS011;8029;52.202;7.308;2023-08-12T13:03:42;0.80;;;0.50;;
15858;SDS011;8029;52.202;7.308;2023-08-12T13:06:08;0.20;;;0.20;;
15858;SDS011;8029;52.202;7.308;2023-08-12T13:08:34;0.20;;;0.20;;
15858;SDS011;8029;52.202;7.308;2023-08-12T13:10:59;0.50;;;0.50;;
15858;SDS011;8029;52.202;7.308;2023-08-12T13:13:25;0.30;;;0.30;;
15858;SDS011;8029;52.202;7.308;2023-08-12T13:15:51;0.52;;;0.52;;
15858;SDS011;8029;52.202;7.308;2023-08-12T13:18:17;0.28;;;0.28;;
15858;SDS011;8029;52.202;7.308;2023-08-12T13:20:43;0.28;;;0.28;;
15858;SDS011;8029;52.202;7.308;2023-08-12T13:23:09;0.25;;;0.25;;
15858;SDS011;8029;52.202;7.308;2023-08-12T13:25:36;0.17;;;0.17;;
15858;SDS011;8029;52.202;7.308;2023-08-12T13:28:03;0.40;;;0.40;;
15858;SDS011;8029;52.202;7.308;2023-08-12T13:30:29;0.10;;;0.10;;
15858;SDS011;8029;52.202;7.308;2023-08-12T13:32:55;0.63;;;0.45;;
15858;SDS011;8029;52.202;7.308;2023-08-12T13:35:22;0.17;;;0.17;;
15858;SDS011;8029;52.202;7.308;2023-08-12T13:37:49;0.30;;;0.30;;
15858;SDS011;8029;52.202;7.308;2023-08-12T13:40:16;0.10;;;0.10;;
15858;SDS011;8029;52.202;7.308;2023-08-12T13:42:42;0.15;;;0.15;;
15858;SDS011;8029;52.202;7.308;2023-08-12T13:45:09;0.30;;;0.30;;
15858;SDS011;8029;52.202;7.308;2023-08-12T13:47:35;0.20;;;0.20;;
15858;SDS011;8029;52.202;7.308;2023-08-12T13:50:02;0.22;;;0.22;;
15858;SDS011;8029;52.202;7.308;2023-08-12T13:52:28;0.40;;;0.25;;
15858;SDS011;8029;52.202;7.308;2023-08-12T13:54:54;0.32;;;0.20;;
15858;SDS011;8029;52.202;7.308;2023-08-12T13:57:20;0.10;;;0.10;;
15858;SDS011;8029;52.202;7.308;2023-08-12T13:59:46;0.20;;;0.20;;
15858;SDS011;8029;52.202;7.308;2023-08-12T14:02:12;0.20;;;0.20;;
15858;SDS011;8029;52.202;7.308;2023-08-12T14:04:38;0.30;;;0.30;;
15858;SDS011;8029;52.202;7.308;2023-08-12T14:07:04;0.08;;;0.08;;
15858;SDS011;8029;52.202;7.308;2023-08-12T14:09:30;0.10;;;0.10;;
15858;SDS011;8029;52.202;7.308;2023-08-12T14:11:57;0.20;;;0.20;;
15858;SDS011;8029;52.202;7.308;2023-08-12T14:14:23;0.10;;;0.10;;
15858;SDS011;8029;52.202;7.308;2023-08-12T14:16:49;0.52;;;0.52;;
15858;SDS011;8029;52.202;7.308;2023-08-12T14:19:15;0.30;;;0.30;;
15858;SDS011;8029;52.202;7.308;2023-08-12T14:21:42;0.55;;;0.55;;
15858;SDS011;8029;52.202;7.308;2023-08-12T14:24:08;0.28;;;0.28;;
15858;SDS011;8029;52.202;7.308;2023-08-12T14:26:34;0.25;;;0.25;;
15858;SDS011;8029;52.202;7.308;2023-08-12T14:29:00;0.43;;;0.38;;
15858;SDS011;8029;52.202;7.308;2023-08-12T14:31:26;0.80;;;0.68;;
15858;SDS011;8029;52.202;7.308;2023-08-12T14:33:52;0.17;;;0.17;;
15858;SDS011;8029;52.202;7.308;2023-08-12T14:36:18;1.45;;;0.93;;
15858;SDS011;8029;52.202;7.308;2023-08-12T14:38:44;2.88;;;0.57;;
15858;SDS011;8029;52.202;7.308;2023-08-12T14:41:10;2.95;;;1.02;;
15858;SDS011;8029;52.202;7.308;2023-08-12T14:43:36;0.63;;;0.60;;
15858;SDS011;8029;52.202;7.308;2023-08-12T14:46:02;0.55;;;0.55;;
15858;SDS011;8029;52.202;7.308;2023-08-12T14:48:28;0.63;;;0.52;;
15858;SDS011;8029;52.202;7.308;2023-08-12T14:50:55;0.95;;;0.80;;
15858;SDS011;8029;52.202;7.308;2023-08-12T14:53:21;0.75;;;0.68;;
15858;SDS011;8029;52.202;7.308;2023-08-12T14:55:47;0.63;;;0.52;;
15858;SDS011;8029;52.202;7.308;2023-08-12T14:58:13;0.35;;;0.35;;
15858;SDS011;8029;52.202;7.308;2023-08-12T15:00:39;1.77;;;0.77;;